createdAt,value
2022-10-03T00:00:13.072Z,7.92
2022-10-03T00:02:57.680Z,7.93
2022-10-03T00:05:52.129Z,7.88
2022-10-03T00:08:40.160Z,7.86
2022-10-03T00:11:24.709Z,7.85
2022-10-03T00:14:14.352Z,7.91
2022-10-03T00:16:52.589Z,7.89
2022-10-03T00:19:44.022Z,7.91
2022-10-03T00:22:21.259Z,7.92
2022-10-03T00:25:13.638Z,7.93
2022-10-03T00:27:47.871Z,7.91
2022-10-03T00:30:20.326Z,7.92
2022-10-03T00:33:11.676Z,7.92
2022-10-03T00:36:04.924Z,8.04
2022-10-03T00:38:50.119Z,8.07
2022-10-03T00:41:22.511Z,8.00
2022-10-03T00:44:25.803Z,8.02
2022-10-03T00:47:32.497Z,8.01
2022-10-03T00:50:07.680Z,8.02
2022-10-03T00:52:51.884Z,8.11
2022-10-03T00:55:27.513Z,8.10
2022-10-03T00:58:12.712Z,8.03
2022-10-03T01:00:41.711Z,8.12
2022-10-03T01:03:27.607Z,8.12
2022-10-03T01:05:56.968Z,8.13
2022-10-03T01:08:47.779Z,8.11
2022-10-03T01:11:36.446Z,8.07
2022-10-03T01:14:21.296Z,8.11
2022-10-03T01:17:17.901Z,8.16
2022-10-03T01:20:03.065Z,8.15
2022-10-03T01:22:51.554Z,8.19
2022-10-03T01:25:37.987Z,8.18
2022-10-03T01:28:58.334Z,8.18
2022-10-03T01:31:34.357Z,8.22
2022-10-03T01:34:08.546Z,8.25
2022-10-03T01:37:03.235Z,8.26
2022-10-03T01:39:34.739Z,8.29
2022-10-03T01:42:17.973Z,8.24
2022-10-03T01:44:44.308Z,8.28
2022-10-03T01:47:20.200Z,8.31
2022-10-03T01:50:16.040Z,8.27
2022-10-03T01:53:21.600Z,8.29
2022-10-03T01:56:05.011Z,8.30
2022-10-03T01:58:52.784Z,8.30
2022-10-03T02:01:21.888Z,8.29
2022-10-03T02:04:11.787Z,8.28
2022-10-03T02:07:13.322Z,8.25
2022-10-03T02:10:00.009Z,8.34
2022-10-03T02:12:35.572Z,8.34
2022-10-03T02:15:05.799Z,8.37
2022-10-03T02:17:55.135Z,8.35
2022-10-03T02:20:28.033Z,8.39
2022-10-03T02:22:56.795Z,8.35
2022-10-03T02:25:52.063Z,8.39
2022-10-03T02:28:47.104Z,8.47
2022-10-03T02:31:48.409Z,8.43
2022-10-03T02:34:26.552Z,8.45
2022-10-03T02:37:27.603Z,8.44
2022-10-03T02:40:12.788Z,8.49
2022-10-03T02:43:06.819Z,8.47
2022-10-03T02:45:54.779Z,8.48
2022-10-03T02:48:38.570Z,8.52
2022-10-03T02:51:39.928Z,8.53
2022-10-03T02:54:21.188Z,8.47
2022-10-03T02:57:25.367Z,8.51
2022-10-03T03:00:18.399Z,8.51
2022-10-03T03:03:22.488Z,8.57
2022-10-03T03:06:10.861Z,8.54
2022-10-03T03:09:16.316Z,8.60
2022-10-03T03:11:59.490Z,8.59
2022-10-03T03:15:19.145Z,8.55
2022-10-03T03:18:04.301Z,8.60
2022-10-03T03:20:57.222Z,8.56
2022-10-03T03:23:41.453Z,8.59
2022-10-03T03:26:19.795Z,8.61
2022-10-03T03:28:55.469Z,8.64
2022-10-03T03:31:31.606Z,8.62
2022-10-03T03:34:21.628Z,8.72
2022-10-03T03:36:55.383Z,8.68
2022-10-03T03:39:50.451Z,8.65
2022-10-03T03:43:11.062Z,8.65
2022-10-03T03:45:46.159Z,8.65
2022-10-03T03:48:38.383Z,8.62
2022-10-03T03:51:27.284Z,8.62
2022-10-03T03:54:31.254Z,8.63
2022-10-03T03:57:28.685Z,8.63
2022-10-03T03:59:57.911Z,8.61
2022-10-03T04:02:26.088Z,8.68
2022-10-03T04:05:08.413Z,8.65
2022-10-03T04:07:53.509Z,8.71
2022-10-03T04:10:33.955Z,8.69
2022-10-03T04:13:25.080Z,8.74
2022-10-03T04:16:43.422Z,8.74
2022-10-03T04:19:15.939Z,8.75
2022-10-03T04:21:59.696Z,8.77
2022-10-03T04:24:46.614Z,8.80
2022-10-03T04:27:54.796Z,8.81
2022-10-03T04:30:51.610Z,8.77
2022-10-03T04:33:37.964Z,8.75
2022-10-03T04:36:22.989Z,8.69
2022-10-03T04:39:20.293Z,8.66
2022-10-03T04:42:04.139Z,8.62
2022-10-03T04:44:50.491Z,8.64
2022-10-03T04:47:22.780Z,8.62
2022-10-03T04:50:04.226Z,8.60
2022-10-03T04:52:51.118Z,8.60
2022-10-03T04:55:40.558Z,8.62
2022-10-03T04:58:44.897Z,8.64
2022-10-03T05:01:21.230Z,8.70
2022-10-03T05:04:10.555Z,8.71
2022-10-03T05:07:04.374Z,8.74
2022-10-03T05:09:55.541Z,8.74
2022-10-03T05:12:40.257Z,8.74
2022-10-03T05:15:27.007Z,8.74
2022-10-03T05:18:08.424Z,8.73
2022-10-03T05:20:45.073Z,8.75
2022-10-03T05:23:19.165Z,8.79
2022-10-03T05:26:24.690Z,8.78
2022-10-03T05:29:10.959Z,8.84
2022-10-03T05:32:02.066Z,8.86
2022-10-03T05:34:39.099Z,8.87
2022-10-03T05:37:29.738Z,8.84
2022-10-03T05:39:58.192Z,8.94
2022-10-03T05:42:36.051Z,8.90
2022-10-03T05:45:24.399Z,8.96
2022-10-03T05:48:17.973Z,8.97
2022-10-03T05:51:09.084Z,8.98
2022-10-03T05:54:18.442Z,9.03
2022-10-03T05:56:58.087Z,9.06
2022-10-03T05:59:51.494Z,9.08
2022-10-03T06:02:33.113Z,9.13
2022-10-03T06:05:15.629Z,9.15
2022-10-03T06:08:06.235Z,9.16
2022-10-03T06:10:50.978Z,9.20
2022-10-03T06:13:30.649Z,9.25
2022-10-03T06:16:04.442Z,9.22
2022-10-03T06:19:04.572Z,9.25
2022-10-03T06:21:58.639Z,9.28
2022-10-03T06:25:01.199Z,9.34
2022-10-03T06:28:05.181Z,9.34
2022-10-03T06:30:46.253Z,9.36
2022-10-03T06:33:40.391Z,9.41
2022-10-03T06:36:44.856Z,9.34
2022-10-03T06:39:44.867Z,9.32
2022-10-03T06:42:21.246Z,9.29
2022-10-03T06:45:03.260Z,9.29
2022-10-03T06:47:41.273Z,9.28
2022-10-03T06:50:13.780Z,9.26
2022-10-03T06:52:50.027Z,9.23
2022-10-03T06:56:03.575Z,9.24
2022-10-03T06:58:59.017Z,9.26
2022-10-03T07:02:25.148Z,9.25
2022-10-03T07:05:04.561Z,9.26
2022-10-03T07:07:36.752Z,9.27
2022-10-03T07:10:14.281Z,9.32
2022-10-03T07:13:15.515Z,9.34
2022-10-03T07:16:20.927Z,9.36
2022-10-03T07:19:16.799Z,9.39
2022-10-03T07:22:25.023Z,9.41
2022-10-03T07:25:28.978Z,9.49
2022-10-03T07:28:04.911Z,9.54
2022-10-03T07:30:55.739Z,9.53
2022-10-03T07:33:39.097Z,9.59
2022-10-03T07:37:02.827Z,9.64
2022-10-03T07:39:48.282Z,10.06
2022-10-03T07:42:56.858Z,10.21
2022-10-03T07:46:07.873Z,10.22
2022-10-03T07:49:08.124Z,10.09
2022-10-03T07:51:45.214Z,10.19
2022-10-03T07:54:45.737Z,10.30
2022-10-03T07:57:43.608Z,10.11
2022-10-03T08:00:22.973Z,10.06
2022-10-03T08:03:15.318Z,10.11
2022-10-03T08:06:05.036Z,10.14
2022-10-03T08:09:07.721Z,10.10
2022-10-03T08:12:22.903Z,10.13
2022-10-03T08:15:04.771Z,10.17
2022-10-03T08:17:50.346Z,10.15
2022-10-03T08:20:40.976Z,10.18
2022-10-03T08:23:44.913Z,10.26
2022-10-03T08:26:41.486Z,10.35
2022-10-03T08:29:22.663Z,10.42
2022-10-03T08:32:17.736Z,10.43
2022-10-03T08:35:05.879Z,10.36
2022-10-03T08:38:02.024Z,10.31
2022-10-03T08:41:13.388Z,10.32
2022-10-03T08:44:04.814Z,10.38
2022-10-03T08:47:08.574Z,10.33
2022-10-03T08:49:57.616Z,10.34
2022-10-03T08:53:03.304Z,10.36
2022-10-03T08:56:05.639Z,10.32
2022-10-03T08:58:56.986Z,10.38
2022-10-03T09:02:01.391Z,10.37
2022-10-03T09:04:39.541Z,10.47
2022-10-03T09:07:37.002Z,10.52
2022-10-03T09:10:43.105Z,10.44
2022-10-03T09:13:15.503Z,10.47
2022-10-03T09:16:06.290Z,10.44
2022-10-03T09:18:54.382Z,10.41
2022-10-03T09:21:39.904Z,10.34
2022-10-03T09:24:18.533Z,10.26
2022-10-03T09:27:25.341Z,10.21
2022-10-03T09:30:36.703Z,10.24
2022-10-03T09:33:24.542Z,10.24
2022-10-03T09:36:11.677Z,10.20
2022-10-03T09:38:59.012Z,10.22
2022-10-03T09:42:03.144Z,10.27
2022-10-03T09:44:40.741Z,10.42
2022-10-03T09:47:30.764Z,10.50
2022-10-03T09:50:36.565Z,10.47
2022-10-03T09:53:32.169Z,10.53
2022-10-03T09:56:35.061Z,10.59
2022-10-03T09:59:24.488Z,10.60
2022-10-03T10:02:15.302Z,10.73
2022-10-03T10:05:12.641Z,10.89
2022-10-03T10:08:01.533Z,10.92
2022-10-03T10:10:51.528Z,10.95
2022-10-03T10:14:07.625Z,10.82
2022-10-03T10:17:03.231Z,10.69
2022-10-03T10:19:29.961Z,10.67
2022-10-03T10:22:27.562Z,10.57
2022-10-03T10:25:09.469Z,10.49
2022-10-03T10:28:04.847Z,10.49
2022-10-03T10:31:09.101Z,10.43
2022-10-03T10:33:57.088Z,10.39
2022-10-03T10:37:02.047Z,10.37
2022-10-03T10:39:34.945Z,10.32
2022-10-03T10:42:18.651Z,10.33
2022-10-03T10:45:14.205Z,10.25
2022-10-03T10:47:48.921Z,10.26
2022-10-03T10:50:25.264Z,10.38
2022-10-03T10:53:29.141Z,10.41
2022-10-03T10:56:14.769Z,10.46
2022-10-03T10:58:44.341Z,10.40
2022-10-03T11:01:52.484Z,10.45
2022-10-03T11:04:53.123Z,10.52
2022-10-03T11:07:56.810Z,10.62
2022-10-03T11:10:35.768Z,10.72
2022-10-03T11:13:18.649Z,10.88
2022-10-03T11:16:03.926Z,11.14
2022-10-03T11:19:04.752Z,11.36
2022-10-03T11:21:46.414Z,11.57
2022-10-03T11:24:47.056Z,11.64
2022-10-03T11:27:36.868Z,11.70
2022-10-03T11:30:40.881Z,11.66
2022-10-03T11:33:49.789Z,11.62
2022-10-03T11:36:48.230Z,11.74
2022-10-03T11:39:56.201Z,12.12
2022-10-03T11:42:39.863Z,12.27
2022-10-03T11:45:16.293Z,12.46
2022-10-03T11:48:13.206Z,12.41
2022-10-03T11:50:43.909Z,12.43
2022-10-03T11:53:47.158Z,12.67
2022-10-03T11:56:22.555Z,12.73
2022-10-03T11:59:26.676Z,12.52
2022-10-03T12:02:34.513Z,12.68
2022-10-03T12:05:25.665Z,12.76
2022-10-03T12:08:30.043Z,12.97
2022-10-03T12:11:33.212Z,13.10
2022-10-03T12:14:19.751Z,13.08
2022-10-03T12:17:16.951Z,13.05
2022-10-03T12:19:56.264Z,13.20
2022-10-03T12:22:50.218Z,13.40
2022-10-03T12:25:21.553Z,13.84
2022-10-03T12:28:03.498Z,14.10
2022-10-03T12:30:47.348Z,13.89
2022-10-03T12:33:35.327Z,14.03
2022-10-03T12:36:29.178Z,14.06
2022-10-03T12:39:31.898Z,14.10
2022-10-03T12:42:26.747Z,14.12
2022-10-03T12:45:00.265Z,14.06
2022-10-03T12:47:56.701Z,14.26
2022-10-03T12:50:57.586Z,14.44
2022-10-03T12:53:30.273Z,14.35
2022-10-03T12:56:25.951Z,14.08
2022-10-03T12:59:15.841Z,14.11
2022-10-03T13:01:59.560Z,13.90
2022-10-03T13:04:35.129Z,13.86
2022-10-03T13:07:26.331Z,13.91
2022-10-03T13:10:19.911Z,13.99
2022-10-03T13:12:54.741Z,14.07
2022-10-03T13:15:40.507Z,13.90
2022-10-03T13:18:45.020Z,13.95
2022-10-03T13:21:44.952Z,14.11
2022-10-03T13:24:26.268Z,14.17
2022-10-03T13:27:23.812Z,14.25
2022-10-03T13:29:55.394Z,14.04
2022-10-03T13:32:30.610Z,14.05
2022-10-03T13:35:33.317Z,14.05
2022-10-03T13:38:26.452Z,13.90
2022-10-03T13:41:27.947Z,13.99
2022-10-03T13:44:10.074Z,14.27
2022-10-03T13:47:15.520Z,14.10
2022-10-03T13:49:59.123Z,13.96
2022-10-03T13:52:44.331Z,13.85
2022-10-03T13:55:28.953Z,13.80
2022-10-03T13:58:25.243Z,13.66
2022-10-03T14:01:11.604Z,13.68
2022-10-03T14:04:09.517Z,13.44
2022-10-03T14:06:56.885Z,13.37
2022-10-03T14:09:45.037Z,13.30
2022-10-03T14:12:51.004Z,13.41
2022-10-03T14:15:24.081Z,13.40
2022-10-03T14:18:01.901Z,13.44
2022-10-03T14:20:34.545Z,13.25
2022-10-03T14:23:08.432Z,13.23
2022-10-03T14:25:41.389Z,13.24
2022-10-03T14:28:19.915Z,13.14
2022-10-03T14:31:05.891Z,13.05
2022-10-03T14:33:51.480Z,13.04
2022-10-03T14:36:33.242Z,13.05
2022-10-03T14:39:22.276Z,13.07
2022-10-03T14:41:52.522Z,13.12
2022-10-03T14:44:44.861Z,13.08
2022-10-03T14:47:13.618Z,12.91
2022-10-03T14:49:56.431Z,12.89
2022-10-03T14:52:43.917Z,12.72
2022-10-03T14:55:25.294Z,12.73
2022-10-03T14:58:10.640Z,12.56
2022-10-03T15:00:45.506Z,12.57
2022-10-03T15:03:19.591Z,12.53
2022-10-03T15:06:04.981Z,12.44
2022-10-03T15:08:39.482Z,12.34
2022-10-03T15:11:07.928Z,12.22
2022-10-03T15:13:51.041Z,12.13
2022-10-03T15:16:20.897Z,12.04
2022-10-03T15:19:07.009Z,12.03
2022-10-03T15:21:34.275Z,11.96
2022-10-03T15:24:07.667Z,11.91
2022-10-03T15:26:38.827Z,11.88
2022-10-03T15:29:06.754Z,11.75
2022-10-03T15:31:37.147Z,11.67
2022-10-03T15:34:26.346Z,11.56
2022-10-03T15:36:58.985Z,11.55
2022-10-03T15:39:30.421Z,11.55
2022-10-03T15:42:15.670Z,11.46
2022-10-03T15:44:53.935Z,11.36
2022-10-03T15:47:28.613Z,11.29
2022-10-03T15:49:59.684Z,11.15
2022-10-03T15:52:41.539Z,11.03
2022-10-03T15:55:15.037Z,10.98
2022-10-03T15:57:50.893Z,10.94
2022-10-03T16:00:28.757Z,10.87
2022-10-03T16:03:11.043Z,10.80
2022-10-03T16:05:46.434Z,10.61
2022-10-03T16:08:19.647Z,10.52
2022-10-03T16:11:06.151Z,10.43
2022-10-03T16:13:59.301Z,10.37
2022-10-03T16:16:37.446Z,10.24
2022-10-03T16:19:16.300Z,10.30
2022-10-03T16:21:46.983Z,10.18
2022-10-03T16:24:20.964Z,10.09
2022-10-03T16:27:06.894Z,10.14
2022-10-03T16:29:36.310Z,10.14
2022-10-03T16:32:06.986Z,10.12
2022-10-03T16:34:35.288Z,10.07
2022-10-03T16:37:03.540Z,10.04
2022-10-03T16:39:37.486Z,10.00
2022-10-03T16:42:17.771Z,10.01
2022-10-03T16:44:51.722Z,9.90
2022-10-03T16:47:20.326Z,9.99
2022-10-03T16:50:13.609Z,9.92
2022-10-03T16:52:41.231Z,9.91
2022-10-03T16:55:18.565Z,9.72
2022-10-03T16:57:49.812Z,9.67
2022-10-03T17:00:22.143Z,9.67
2022-10-03T17:02:48.873Z,9.60
2022-10-03T17:05:16.575Z,9.47
2022-10-03T17:07:49.076Z,9.48
2022-10-03T17:10:39.785Z,9.36
2022-10-03T17:13:17.900Z,9.29
2022-10-03T17:16:00.650Z,9.23
2022-10-03T17:18:35.839Z,9.05
2022-10-03T17:21:17.240Z,9.00
2022-10-03T17:24:08.486Z,8.99
2022-10-03T17:26:40.805Z,8.88
2022-10-03T17:29:19.689Z,8.76
2022-10-03T17:31:52.667Z,8.74
2022-10-03T17:34:40.549Z,8.63
2022-10-03T17:37:22.296Z,8.63
2022-10-03T17:39:56.757Z,8.69
2022-10-03T17:42:42.521Z,8.63
2022-10-03T17:45:54.538Z,8.68
2022-10-03T17:48:26.140Z,8.72
2022-10-03T17:51:11.300Z,8.77
2022-10-03T17:53:38.604Z,8.82
2022-10-03T17:56:09.561Z,8.77
2022-10-03T17:58:37.912Z,8.78
2022-10-03T18:01:10.548Z,8.81
2022-10-03T18:04:03.403Z,8.80
2022-10-03T18:06:31.934Z,8.78
2022-10-03T18:09:02.149Z,8.76
2022-10-03T18:11:30.922Z,8.79
2022-10-03T18:14:11.627Z,8.86
2022-10-03T18:16:43.727Z,8.87
2022-10-03T18:19:31.845Z,8.81
2022-10-03T18:22:15.824Z,8.81
2022-10-03T18:24:55.422Z,8.80
2022-10-03T18:27:22.078Z,8.77
2022-10-03T18:29:53.008Z,8.73
2022-10-03T18:32:22.800Z,8.69
2022-10-03T18:34:53.091Z,8.65
2022-10-03T18:37:28.718Z,8.64
2022-10-03T18:39:56.970Z,8.60
2022-10-03T18:42:28.375Z,8.61
2022-10-03T18:44:56.304Z,8.60
2022-10-03T18:47:38.791Z,8.63
2022-10-03T18:50:26.991Z,8.54
2022-10-03T18:53:13.713Z,8.55
2022-10-03T18:55:44.647Z,8.50
2022-10-03T18:58:21.523Z,8.41
2022-10-03T19:00:53.109Z,8.40
2022-10-03T19:03:24.503Z,8.37
2022-10-03T19:06:25.906Z,8.33
2022-10-03T19:08:59.105Z,8.33
2022-10-03T19:11:40.665Z,8.26
2022-10-03T19:14:29.465Z,8.24
2022-10-03T19:16:57.207Z,8.25
2022-10-03T19:19:59.076Z,8.17
2022-10-03T19:22:37.307Z,8.16
2022-10-03T19:25:05.994Z,8.13
2022-10-03T19:27:45.338Z,8.23
2022-10-03T19:30:18.938Z,8.24
2022-10-03T19:33:03.954Z,8.29
2022-10-03T19:35:33.043Z,8.37
2022-10-03T19:38:04.754Z,8.45
2022-10-03T19:40:45.425Z,8.49
2022-10-03T19:43:24.089Z,8.53
2022-10-03T19:45:58.027Z,8.54
2022-10-03T19:48:27.305Z,8.57
2022-10-03T19:50:53.736Z,8.55
2022-10-03T19:53:20.369Z,8.50
2022-10-03T19:55:47.517Z,8.54
2022-10-03T19:58:23.172Z,8.49
2022-10-03T20:00:55.431Z,8.51
2022-10-03T20:03:40.899Z,8.50
2022-10-03T20:06:19.414Z,8.59
2022-10-03T20:08:47.687Z,8.52
2022-10-03T20:11:45.427Z,8.50
2022-10-03T20:14:23.640Z,8.45
2022-10-03T20:16:51.905Z,8.45
2022-10-03T20:19:23.701Z,8.43
2022-10-03T20:21:57.631Z,8.45
2022-10-03T20:24:35.925Z,8.46
2022-10-03T20:27:24.111Z,8.53
2022-10-03T20:30:08.778Z,8.55
2022-10-03T20:32:38.041Z,8.65
2022-10-03T20:35:05.181Z,8.69
2022-10-03T20:37:45.711Z,8.72
2022-10-03T20:40:35.846Z,8.78
2022-10-03T20:43:29.092Z,8.70
2022-10-03T20:46:20.415Z,8.73
2022-10-03T20:49:31.745Z,8.73
2022-10-03T20:52:04.501Z,8.75
2022-10-03T20:54:36.500Z,8.83
2022-10-03T20:57:22.338Z,8.79
2022-10-03T20:59:52.807Z,8.84
2022-10-03T21:02:27.424Z,8.85
2022-10-03T21:05:04.787Z,8.86
2022-10-03T21:07:43.416Z,8.86
2022-10-03T21:10:14.396Z,8.90
2022-10-03T21:12:45.609Z,8.82
2022-10-03T21:15:34.338Z,8.78
2022-10-03T21:18:01.847Z,8.71
2022-10-03T21:20:35.885Z,8.73
2022-10-03T21:23:09.604Z,8.76
2022-10-03T21:25:36.948Z,8.79
2022-10-03T21:28:04.828Z,8.76
2022-10-03T21:30:45.859Z,8.67
2022-10-03T21:33:17.944Z,8.64
2022-10-03T21:35:44.849Z,8.65
2022-10-03T21:38:34.947Z,8.51
2022-10-03T21:41:32.294Z,8.53
2022-10-03T21:44:01.858Z,8.49
2022-10-03T21:46:36.457Z,8.44
2022-10-03T21:49:07.269Z,8.38
2022-10-03T21:51:48.708Z,8.43
2022-10-03T21:54:25.010Z,8.35
2022-10-03T21:57:04.533Z,8.39
2022-10-03T21:59:42.998Z,8.34
2022-10-03T22:02:27.415Z,8.43
2022-10-03T22:04:58.000Z,8.48
2022-10-03T22:07:35.463Z,8.53
2022-10-03T22:10:04.348Z,8.51
2022-10-03T22:12:40.800Z,8.48
2022-10-03T22:15:16.738Z,8.50
2022-10-03T22:17:54.026Z,8.37
2022-10-03T22:20:23.214Z,8.36
2022-10-03T22:23:04.414Z,8.31
2022-10-03T22:25:44.304Z,8.37
2022-10-03T22:28:14.890Z,8.36
2022-10-03T22:30:47.826Z,8.23
2022-10-03T22:33:32.527Z,8.33
2022-10-03T22:36:03.279Z,8.34
2022-10-03T22:38:35.509Z,8.30
2022-10-03T22:41:06.256Z,8.27
2022-10-03T22:43:35.964Z,8.33
2022-10-03T22:46:03.506Z,8.33
2022-10-03T22:48:46.429Z,8.30
2022-10-03T22:51:15.087Z,8.28
2022-10-03T22:53:47.288Z,8.32
2022-10-03T22:56:40.265Z,8.19
2022-10-03T22:59:10.254Z,8.12
2022-10-03T23:01:37.305Z,8.14
2022-10-03T23:04:05.564Z,8.19
2022-10-03T23:07:06.055Z,8.15
2022-10-03T23:09:35.793Z,8.13
2022-10-03T23:12:04.333Z,8.11
2022-10-03T23:14:36.749Z,8.10
2022-10-03T23:17:22.219Z,8.11
2022-10-03T23:20:22.552Z,8.22
2022-10-03T23:22:57.640Z,8.15
2022-10-03T23:25:26.768Z,8.19
2022-10-03T23:28:00.182Z,8.25
2022-10-03T23:30:26.858Z,8.25
2022-10-03T23:32:54.879Z,8.29
2022-10-03T23:35:42.929Z,8.38
2022-10-03T23:38:35.240Z,8.47
2022-10-03T23:41:28.328Z,8.48
2022-10-03T23:43:58.447Z,8.47
2022-10-03T23:46:28.081Z,8.47
2022-10-03T23:48:56.876Z,8.52
2022-10-03T23:51:28.070Z,8.62
2022-10-03T23:53:58.458Z,8.59
2022-10-03T23:56:38.980Z,8.64
2022-10-03T23:59:05.305Z,8.66
